Terminal Aerodrome Forecast
Issued by NWS

Home | Current Version | Previous Version | Text Only | Print | Product List | Glossary On
Versions: 1 2 3 4 5 6 7 8 9 10 11 12 13 14 15 16 17 18 19 20 21
000
FTUS43 KILX 260500
TAFBMI
TAF
KBMI 260521Z 2606/2706 36009KT P6SM BKN015
     FM260700 32004KT P6SM SCT015 BKN080
     FM261700 23007KT P6SM BKN025
     FM262000 18008KT P6SM OVC025
      TEMPO 2620/2623 5SM -SN BR OVC015=

USA.gov is the U.S. government's official web portal to all federal, state and local government web resources and services.